Jacana — WDG3702 — position and weather

sailwx.info

Track history (hours):
 
Tides and Currents Weather Stations Pressure Air Temp Water Temp Dewpoint Dewpoint Depression Visibility Wind Speed Wind Dir Waves Ship Positions

Jacana

Owner: Jacana Yacht LLC, Woodhaven, NY. More information available from US FCC via Universal Licensing System and Coast Guard Vessel Documentation Center.

Last reported at 2018-Jun-25 01:41 UTC. Time now 2018-Jun-25 08:20 UTC.
Position N 40°44' W 073°58'.

Length 27 m; draft 2 m.

Type: Passenger vessel. MMSI: 367528810.

Date/timePositionNaut miles runAvg speedWind from/ knotsBaromVisibWave heightAir tempDewpointWater temp
2018-Jun-25 01:41N 40°44' W 073°58'0 1.7
2018-Jun-25 01:30N 40°44' W 073°58'1 2.8
2018-Jun-25 01:00N 40°43' W 073°59'2 3.9
2018-Jun-25 00:30N 40°42' W 074°01'1 2.4
2018-Jun-25 00:00N 40°41' W 074°02'2 4.4
2018-Jun-24 23:30N 40°42' W 073°60'2 3.2
2018-Jun-24 23:00N 40°43' W 073°58'1 1.4
2018-Jun-24 22:30N 40°44' W 073°58'0 0.0
2018-Jun-24 22:00N 40°44' W 073°58'0 0.0
2018-Jun-24 21:30N 40°44' W 073°58'0 0.0
2018-Jun-24 20:59N 40°44' W 073°58'0 0.6
2018-Jun-24 20:30N 40°44' W 073°58'0 0.3
2018-Jun-24 20:00N 40°44' W 073°58'3 5.0
2018-Jun-24 19:30N 40°42' W 073°60'2 3.2
2018-Jun-24 19:00N 40°42' W 074°02'1 1.8
2018-Jun-24 18:30N 40°41' W 074°03'4 4.4
2018-Jun-24 17:33N 40°44' W 073°58'0 0.0
2018-Jun-24 17:30N 40°44' W 073°58'0 0.0
2018-Jun-24 17:00N 40°44' W 073°58'0 0.0
2018-Jun-24 02:45N 40°44' W 073°58'0 0.9
2018-Jun-24 02:30N 40°44' W 073°58'1 2.9
2018-Jun-24 02:00N 40°43' W 073°59'1 2.9
2018-Jun-24 01:30N 40°42' W 074°00'1 2.6
2018-Jun-24 01:00N 40°43' W 074°02'2 3.0
2018-Jun-24 00:30N 40°41' W 074°03'3 5.0
2018-Jun-24 00:00N 40°42' W 073°60'2 3.8
2018-Jun-23 23:30N 40°44' W 073°58'0 0.0
2018-Jun-23 23:00N 40°44' W 073°58'0 0.0
2018-Jun-23 22:30N 40°44' W 073°58'0 0.0
2018-Jun-23 21:59N 40°44' W 073°58'0 0.7
2018-Jun-23 21:30N 40°44' W 073°58'2 3.6
2018-Jun-23 21:00N 40°42' W 073°59'3 5.8
2018-Jun-23 20:30N 40°41' W 074°02'2 3.2
2018-Jun-23 20:00N 40°43' W 074°01'2 3.0
2018-Jun-23 19:30N 40°42' W 073°60'2 3.4
2018-Jun-23 19:00N 40°44' W 073°58'0 0.9
2018-Jun-23 18:30N 40°44' W 073°58'0 0.0
2018-Jun-23 18:00N 40°44' W 073°58'0 0.0
2018-Jun-23 01:52N 40°44' W 073°58'0 0.2
2018-Jun-23 01:30N 40°44' W 073°58'1 2.4
2018-Jun-23 01:00N 40°43' W 073°58'1 3.0
2018-Jun-23 00:31N 40°42' W 074°00'2 3.9
2018-Jun-23 00:01N 40°41' W 074°02'2 3.2
2018-Jun-22 23:31N 40°42' W 074°00'  
2018-Jun-18 02:23N 40°44' W 073°58'1 2.6
2018-Jun-18 02:00N 40°45' W 073°58'3 5.4
2018-Jun-18 01:31N 40°42' W 073°59'3 5.2
2018-Jun-18 01:00N 40°42' W 074°02'1 2.7
2018-Jun-18 00:30N 40°42' W 074°00'2 4.6
2018-Jun-18 00:01N 40°43' W 073°58'1 1.4
2018-Jun-17 23:30N 40°44' W 073°58'0 0.0
2018-Jun-17 22:51N 40°44' W 073°58'0 0.0
2018-Jun-17 22:26N 40°44' W 073°58'0 0.0
2018-Jun-17 02:53N 40°44' W 073°58'1 2.6
2018-Jun-17 02:30N 40°43' W 073°58'1 1.4
2018-Jun-17 02:00N 40°43' W 073°59'3 6.3
2018-Jun-17 01:30N 40°41' W 074°02'1 2.9
2018-Jun-17 01:00N 40°42' W 074°01'2 3.1
2018-Jun-17 00:30N 40°43' W 073°59'1 2.9
2018-Jun-17 00:00N 40°44' W 073°58'0 0.5
2018-Jun-16 23:28N 40°44' W 073°58'0 0.0
2018-Jun-16 02:32N 40°44' W 073°58'0 0.0
2018-Jun-16 02:30N 40°44' W 073°58'1 2.3
2018-Jun-16 02:00N 40°43' W 073°58'4 7.3
2018-Jun-16 01:30N 40°41' W 074°02'2 4.4
2018-Jun-16 01:00N 40°42' W 073°60'1 1.8
2018-Jun-16 00:30N 40°43' W 073°59'1 2.4
2018-Jun-16 00:00N 40°44' W 073°58'0 0.9
2018-Jun-15 23:30N 40°44' W 073°58'0 0.0
2018-Jun-15 23:00N 40°44' W 073°58'0 0.0
2018-Jun-15 02:33N 40°44' W 073°58'0 0.0
2018-Jun-15 02:29N 40°44' W 073°58'1 2.7
2018-Jun-15 02:00N 40°43' W 073°58'  
Track history (hours):
 
Tides and Currents Weather Stations Pressure Air Temp Water Temp Dewpoint Dewpoint Depression Visibility Wind Speed Wind Dir Waves Ship Positions

Jacana

Owner: Jacana Yacht LLC, Woodhaven, NY. More information available from US FCC via Universal Licensing System and Coast Guard Vessel Documentation Center.

Last reported at 2018-Jun-25 01:41 UTC. Time now 2018-Jun-25 08:20 UTC.
Position N 40°44' W 073°58'.

Length 27 m; draft 2 m.

Type: Passenger vessel. MMSI: 367528810.

Date/timePositionNaut miles runAvg speedWind from/ knotsBaromVisibWave heightAir tempDewpointWater temp
2018-Jun-25 01:41N 40°44' W 073°58'0 1.7
2018-Jun-25 01:30N 40°44' W 073°58'1 2.8
2018-Jun-25 01:00N 40°43' W 073°59'2 3.9
2018-Jun-25 00:30N 40°42' W 074°01'1 2.4
2018-Jun-25 00:00N 40°41' W 074°02'2 4.4
2018-Jun-24 23:30N 40°42' W 073°60'2 3.2
2018-Jun-24 23:00N 40°43' W 073°58'1 1.4
2018-Jun-24 22:30N 40°44' W 073°58'0 0.0
2018-Jun-24 22:00N 40°44' W 073°58'0 0.0
2018-Jun-24 21:30N 40°44' W 073°58'0 0.0
2018-Jun-24 20:59N 40°44' W 073°58'0 0.6
2018-Jun-24 20:30N 40°44' W 073°58'0 0.3
2018-Jun-24 20:00N 40°44' W 073°58'3 5.0
2018-Jun-24 19:30N 40°42' W 073°60'2 3.2
2018-Jun-24 19:00N 40°42' W 074°02'1 1.8
2018-Jun-24 18:30N 40°41' W 074°03'4 4.4
2018-Jun-24 17:33N 40°44' W 073°58'0 0.0
2018-Jun-24 17:30N 40°44' W 073°58'0 0.0
2018-Jun-24 17:00N 40°44' W 073°58'0 0.0
2018-Jun-24 02:45N 40°44' W 073°58'0 0.9
2018-Jun-24 02:30N 40°44' W 073°58'1 2.9
2018-Jun-24 02:00N 40°43' W 073°59'1 2.9
2018-Jun-24 01:30N 40°42' W 074°00'1 2.6
2018-Jun-24 01:00N 40°43' W 074°02'2 3.0
2018-Jun-24 00:30N 40°41' W 074°03'3 5.0
2018-Jun-24 00:00N 40°42' W 073°60'2 3.8
2018-Jun-23 23:30N 40°44' W 073°58'0 0.0
2018-Jun-23 23:00N 40°44' W 073°58'0 0.0
2018-Jun-23 22:30N 40°44' W 073°58'0 0.0
2018-Jun-23 21:59N 40°44' W 073°58'0 0.7
2018-Jun-23 21:30N 40°44' W 073°58'2 3.6
2018-Jun-23 21:00N 40°42' W 073°59'3 5.8
2018-Jun-23 20:30N 40°41' W 074°02'2 3.2
2018-Jun-23 20:00N 40°43' W 074°01'2 3.0
2018-Jun-23 19:30N 40°42' W 073°60'2 3.4
2018-Jun-23 19:00N 40°44' W 073°58'0 0.9
2018-Jun-23 18:30N 40°44' W 073°58'0 0.0
2018-Jun-23 18:00N 40°44' W 073°58'0 0.0
2018-Jun-23 01:52N 40°44' W 073°58'0 0.2
2018-Jun-23 01:30N 40°44' W 073°58'1 2.4
2018-Jun-23 01:00N 40°43' W 073°58'1 3.0
2018-Jun-23 00:31N 40°42' W 074°00'2 3.9
2018-Jun-23 00:01N 40°41' W 074°02'2 3.2
2018-Jun-22 23:31N 40°42' W 074°00'  
2018-Jun-18 02:23N 40°44' W 073°58'1 2.6
2018-Jun-18 02:00N 40°45' W 073°58'3 5.4
2018-Jun-18 01:31N 40°42' W 073°59'3 5.2
2018-Jun-18 01:00N 40°42' W 074°02'1 2.7
2018-Jun-18 00:30N 40°42' W 074°00'2 4.6
2018-Jun-18 00:01N 40°43' W 073°58'1 1.4
2018-Jun-17 23:30N 40°44' W 073°58'0 0.0
2018-Jun-17 22:51N 40°44' W 073°58'0 0.0
2018-Jun-17 22:26N 40°44' W 073°58'0 0.0
2018-Jun-17 02:53N 40°44' W 073°58'1 2.6
2018-Jun-17 02:30N 40°43' W 073°58'1 1.4
2018-Jun-17 02:00N 40°43' W 073°59'3 6.3
2018-Jun-17 01:30N 40°41' W 074°02'1 2.9
2018-Jun-17 01:00N 40°42' W 074°01'2 3.1
2018-Jun-17 00:30N 40°43' W 073°59'1 2.9
2018-Jun-17 00:00N 40°44' W 073°58'0 0.5
2018-Jun-16 23:28N 40°44' W 073°58'0 0.0
2018-Jun-16 02:32N 40°44' W 073°58'0 0.0
2018-Jun-16 02:30N 40°44' W 073°58'1 2.3
2018-Jun-16 02:00N 40°43' W 073°58'4 7.3
2018-Jun-16 01:30N 40°41' W 074°02'2 4.4
2018-Jun-16 01:00N 40°42' W 073°60'1 1.8
2018-Jun-16 00:30N 40°43' W 073°59'1 2.4
2018-Jun-16 00:00N 40°44' W 073°58'0 0.9
2018-Jun-15 23:30N 40°44' W 073°58'0 0.0
2018-Jun-15 23:00N 40°44' W 073°58'0 0.0
2018-Jun-15 02:33N 40°44' W 073°58'0 0.0
2018-Jun-15 02:29N 40°44' W 073°58'1 2.7
2018-Jun-15 02:00N 40°43' W 073°58'  

Dump ship's entire track history